createdAt,value
2022-09-06T04:22:59.890Z,25.35
2022-09-06T04:23:31.873Z,25.36
2022-09-06T04:24:05.489Z,25.30
2022-09-06T04:24:37.467Z,25.31
2022-09-06T04:25:09.285Z,25.33
2022-09-06T04:25:50.670Z,25.32
2022-09-06T04:26:22.293Z,25.33
2022-09-06T04:26:54.092Z,25.35
2022-09-06T04:27:25.761Z,25.33
2022-09-06T04:27:57.844Z,25.30
2022-09-06T04:28:29.753Z,25.35
2022-09-06T04:29:01.964Z,25.36
2022-09-06T04:29:34.040Z,25.33
2022-09-06T04:30:05.888Z,25.37
2022-09-06T04:30:37.883Z,25.35
2022-09-06T04:31:09.472Z,25.34
2022-09-06T04:31:41.185Z,25.32
2022-09-06T04:32:12.898Z,25.30
2022-09-06T04:32:44.697Z,25.32
2022-09-06T04:33:16.322Z,25.33
2022-09-06T04:33:48.003Z,25.35
2022-09-06T04:34:19.989Z,25.33
2022-09-06T04:34:51.963Z,25.35
2022-09-06T04:35:24.029Z,25.34
2022-09-06T04:35:56.120Z,25.30
2022-09-06T04:36:27.959Z,25.33
2022-09-06T04:36:59.953Z,25.33
2022-09-06T04:37:32.174Z,25.34
2022-09-06T04:38:04.363Z,25.35
2022-09-06T04:38:36.835Z,25.32
2022-09-06T04:39:08.605Z,25.29
2022-09-06T04:39:40.646Z,25.32
2022-09-06T04:40:12.383Z,25.34
2022-09-06T04:40:43.978Z,25.33
2022-09-06T04:41:16.407Z,25.35
2022-09-06T04:41:48.393Z,25.31
2022-09-06T04:42:20.201Z,25.33
2022-09-06T04:42:51.873Z,25.33
2022-09-06T04:43:23.513Z,25.34
2022-09-06T04:43:55.129Z,25.38
2022-09-06T04:44:26.898Z,25.37
2022-09-06T04:44:58.878Z,25.34
2022-09-06T04:45:30.658Z,25.35
2022-09-06T04:46:03.597Z,25.35
2022-09-06T04:46:35.233Z,25.33
2022-09-06T04:47:09.626Z,25.30
2022-09-06T04:47:41.441Z,25.35
2022-09-06T04:48:13.133Z,25.35
2022-09-06T04:48:45.213Z,25.35
2022-09-06T04:49:18.255Z,25.37
2022-09-06T04:49:49.877Z,25.35
2022-09-06T04:50:21.889Z,25.33
2022-09-06T04:50:53.950Z,25.36
2022-09-06T04:51:25.583Z,25.36
2022-09-06T04:51:57.437Z,25.32
2022-09-06T04:52:30.301Z,25.36
2022-09-06T04:53:02.452Z,25.35
2022-09-06T04:53:34.451Z,25.32
2022-09-06T04:54:06.167Z,25.37
2022-09-06T04:54:38.157Z,25.37
2022-09-06T04:55:09.920Z,25.38
2022-09-06T04:55:41.518Z,25.37
2022-09-06T04:56:14.230Z,25.35
2022-09-06T04:56:46.331Z,25.35
2022-09-06T04:57:18.392Z,25.38
2022-09-06T04:57:51.311Z,25.35
2022-09-06T04:58:23.703Z,25.32
2022-09-06T04:58:55.353Z,25.35
2022-09-06T04:59:27.155Z,25.34
2022-09-06T04:59:58.949Z,25.36
2022-09-06T05:00:31.281Z,25.38
2022-09-06T05:01:03.313Z,25.38
2022-09-06T05:01:35.055Z,25.36
2022-09-06T05:02:07.087Z,25.35
2022-09-06T05:02:38.780Z,25.36
2022-09-06T05:03:10.641Z,25.35
2022-09-06T05:03:42.585Z,25.38
2022-09-06T05:04:14.513Z,25.38
2022-09-06T05:04:46.297Z,25.39
2022-09-06T05:05:18.038Z,25.35
2022-09-06T05:05:49.685Z,25.38
2022-09-06T05:06:22.339Z,25.38
2022-09-06T05:07:03.897Z,25.37
2022-09-06T05:07:35.517Z,25.36
2022-09-06T05:08:07.608Z,25.35
2022-09-06T05:08:39.436Z,25.34
2022-09-06T05:09:11.072Z,25.36
2022-09-06T05:09:42.704Z,25.37
2022-09-06T05:10:14.686Z,25.35
2022-09-06T05:10:52.439Z,25.37
2022-09-06T05:11:25.121Z,25.35
2022-09-06T05:11:59.797Z,25.33
2022-09-06T05:12:31.383Z,25.34
2022-09-06T05:13:03.394Z,25.36
2022-09-06T05:13:35.061Z,25.33
2022-09-06T05:14:06.717Z,25.32
2022-09-06T05:14:38.674Z,25.36
2022-09-06T05:15:10.789Z,25.36
2022-09-06T05:15:42.385Z,25.35
2022-09-06T05:16:14.453Z,25.37
2022-09-06T05:16:46.492Z,25.36
2022-09-06T05:17:18.454Z,25.38
2022-09-06T05:17:50.500Z,25.39
2022-09-06T05:18:22.313Z,25.40
2022-09-06T05:18:53.871Z,25.40
2022-09-06T05:19:25.447Z,25.42
2022-09-06T05:19:57.251Z,25.41
2022-09-06T05:20:28.840Z,25.40
2022-09-06T05:21:00.510Z,25.42
2022-09-06T05:21:32.196Z,25.42
2022-09-06T05:22:03.983Z,25.41
2022-09-06T05:22:35.877Z,25.42
2022-09-06T05:23:07.510Z,25.41
2022-09-06T05:23:39.248Z,25.42
2022-09-06T05:24:10.936Z,25.43
2022-09-06T05:24:42.871Z,25.40
2022-09-06T05:25:14.866Z,25.42
2022-09-06T05:25:46.911Z,25.39
2022-09-06T05:27:01.152Z,25.37
2022-09-06T05:27:52.285Z,25.40
2022-09-06T05:28:40.315Z,25.40
2022-09-06T05:29:30.507Z,25.41
2022-09-06T05:30:16.120Z,25.40
2022-09-06T05:31:11.415Z,25.42
2022-09-06T05:32:00.189Z,25.43
2022-09-06T05:32:49.749Z,25.42
2022-09-06T05:33:38.161Z,25.44
2022-09-06T05:34:27.896Z,25.45
2022-09-06T05:35:16.826Z,25.45
2022-09-06T05:36:11.760Z,25.44
2022-09-06T05:37:00.597Z,25.45
2022-09-06T05:37:51.798Z,25.43
2022-09-06T05:38:41.383Z,25.39
2022-09-06T05:39:29.798Z,25.38
2022-09-06T05:40:16.943Z,25.40
2022-09-06T05:41:06.656Z,25.42
2022-09-06T05:41:53.374Z,25.43
2022-09-06T05:42:39.485Z,25.42
2022-09-06T05:43:26.148Z,25.43
2022-09-06T05:44:12.795Z,25.43
2022-09-06T05:44:59.812Z,25.45
2022-09-06T05:45:44.165Z,25.45
2022-09-06T05:46:34.870Z,25.43
2022-09-06T05:47:20.025Z,25.43
2022-09-06T05:48:11.878Z,25.43
2022-09-06T05:48:59.224Z,25.44
2022-09-06T05:49:44.558Z,25.44
2022-09-06T05:50:30.358Z,25.44
2022-09-06T05:51:20.354Z,25.43
2022-09-06T05:52:05.664Z,25.43
2022-09-06T05:52:50.952Z,25.44
2022-09-06T05:53:39.957Z,25.44
2022-09-06T05:54:24.853Z,25.43
2022-09-06T05:55:11.346Z,25.44
2022-09-06T05:55:56.965Z,25.44
2022-09-06T05:56:47.732Z,25.45
2022-09-06T05:57:33.539Z,25.45
2022-09-06T05:58:19.003Z,25.44
2022-09-06T05:59:04.950Z,25.47
2022-09-06T05:59:52.648Z,25.45
2022-09-06T06:00:37.469Z,25.46
2022-09-06T06:01:22.008Z,25.46
2022-09-06T06:02:13.599Z,25.45
2022-09-06T06:03:00.240Z,25.45
2022-09-06T06:03:47.058Z,25.44
2022-09-06T06:04:33.348Z,25.45
2022-09-06T06:05:21.091Z,25.44
2022-09-06T06:06:08.174Z,25.43
2022-09-06T06:06:54.877Z,25.45
2022-09-06T06:07:47.529Z,25.43
2022-09-06T06:08:34.020Z,25.42
2022-09-06T06:09:20.596Z,25.42
2022-09-06T06:10:07.110Z,25.42
2022-09-06T06:10:53.560Z,25.43
2022-09-06T06:11:40.015Z,25.43
2022-09-06T06:12:30.267Z,25.43
2022-09-06T06:13:17.462Z,25.43
2022-09-06T06:14:04.057Z,25.43
2022-09-06T06:14:50.018Z,25.44
2022-09-06T06:15:35.461Z,25.43
2022-09-06T06:16:22.193Z,25.44
2022-09-06T06:17:08.994Z,25.45
2022-09-06T06:17:58.661Z,25.45
2022-09-06T06:18:48.787Z,25.43
2022-09-06T06:19:36.338Z,25.43
2022-09-06T06:20:23.296Z,25.44
2022-09-06T06:21:18.359Z,25.43
2022-09-06T06:22:02.792Z,25.42
2022-09-06T06:22:53.391Z,25.42
2022-09-06T06:23:38.274Z,25.42
2022-09-06T06:24:30.105Z,25.44
2022-09-06T06:25:14.686Z,25.43
2022-09-06T06:26:01.424Z,25.43
2022-09-06T06:26:47.942Z,25.45
2022-09-06T06:27:34.377Z,25.42
2022-09-06T06:28:24.305Z,25.39
2022-09-06T06:29:10.077Z,25.42
2022-09-06T06:29:55.189Z,25.39
2022-09-06T06:30:40.632Z,25.42
2022-09-06T06:31:26.624Z,25.40
2022-09-06T06:32:14.427Z,25.40
2022-09-06T06:33:02.158Z,25.36
2022-09-06T06:33:54.826Z,25.37
2022-09-06T06:34:43.089Z,25.41
2022-09-06T06:35:30.684Z,25.37
2022-09-06T06:36:16.767Z,25.39
2022-09-06T06:37:04.135Z,25.39
2022-09-06T06:37:52.897Z,25.42
2022-09-06T06:38:47.873Z,25.40
2022-09-06T06:39:34.825Z,25.40
2022-09-06T06:40:22.119Z,25.41
2022-09-06T06:41:10.265Z,25.36
2022-09-06T06:41:56.974Z,25.39
2022-09-06T06:42:43.965Z,25.42
2022-09-06T06:43:32.306Z,25.42
2022-09-06T06:44:26.753Z,25.43
2022-09-06T06:45:13.541Z,25.41
2022-09-06T06:46:01.147Z,25.41
2022-09-06T06:46:48.745Z,25.38
2022-09-06T06:47:37.790Z,25.40
2022-09-06T06:48:26.284Z,25.39
2022-09-06T06:49:20.393Z,25.36
2022-09-06T06:50:09.026Z,25.36
2022-09-06T06:50:56.917Z,25.39
2022-09-06T06:51:44.788Z,25.38
2022-09-06T06:52:33.649Z,25.40
2022-09-06T06:53:22.212Z,25.42
2022-09-06T06:54:16.212Z,25.42
2022-09-06T06:55:05.740Z,25.42
2022-09-06T06:55:53.099Z,25.38
2022-09-06T06:56:40.418Z,25.39
2022-09-06T06:57:27.308Z,25.40
2022-09-06T06:58:13.986Z,25.43
2022-09-06T06:59:03.749Z,25.44
2022-09-06T06:59:49.791Z,25.42
2022-09-06T07:00:36.479Z,25.41
2022-09-06T07:01:22.745Z,25.39
2022-09-06T07:02:08.868Z,25.43
2022-09-06T07:02:55.137Z,25.41
2022-09-06T07:03:44.281Z,25.43
2022-09-06T07:04:30.023Z,25.44
2022-09-06T07:06:19.774Z,25.42
2022-09-06T07:08:07.786Z,25.42
2022-09-06T07:08:57.717Z,25.42
2022-09-06T07:10:46.689Z,25.41
2022-09-06T07:11:31.995Z,25.41
2022-09-06T07:12:18.020Z,25.42
2022-09-06T07:13:02.997Z,25.43
2022-09-06T07:13:53.539Z,25.43
2022-09-06T07:14:45.286Z,25.44
2022-09-06T07:15:31.686Z,25.46
2022-09-06T07:16:21.130Z,25.43
2022-09-06T07:17:09.264Z,25.43
2022-09-06T07:17:54.929Z,25.41
2022-09-06T07:18:41.135Z,25.43
2022-09-06T07:21:37.657Z,25.45
2022-09-06T07:22:28.492Z,25.43
2022-09-06T07:24:20.827Z,25.44
2022-09-06T07:25:06.962Z,25.44
2022-09-06T07:25:52.966Z,25.43
2022-09-06T07:26:40.839Z,25.43
2022-09-06T07:28:32.361Z,25.43
2022-09-06T07:29:29.300Z,25.40
2022-09-06T07:30:17.471Z,25.40
2022-09-06T07:31:07.350Z,25.40
2022-09-06T07:32:11.933Z,25.41
2022-09-06T07:32:59.982Z,25.44
2022-09-06T07:33:51.462Z,25.42
2022-09-06T07:34:48.272Z,25.43
2022-09-06T07:35:37.155Z,25.43
2022-09-06T07:36:26.773Z,25.44
2022-09-06T07:37:16.474Z,25.43
2022-09-06T07:38:04.262Z,25.43
2022-09-06T07:38:53.178Z,25.45
2022-09-06T07:39:46.882Z,25.47
2022-09-06T07:40:35.097Z,25.46
2022-09-06T07:41:26.121Z,25.45
2022-09-06T07:42:14.435Z,25.44
2022-09-06T07:43:02.363Z,25.46
2022-09-06T07:43:50.435Z,25.48
2022-09-06T07:44:38.822Z,25.48
2022-09-06T07:45:37.056Z,25.44
2022-09-06T07:46:25.634Z,25.47
2022-09-06T07:48:19.137Z,25.48
2022-09-06T07:49:10.083Z,25.45
2022-09-06T07:51:11.935Z,25.46
2022-09-06T07:53:14.979Z,25.46
2022-09-06T07:54:29.349Z,25.46
2022-09-06T07:55:12.517Z,25.48
2022-09-06T07:56:06.938Z,25.45
2022-09-06T07:56:57.230Z,25.46
2022-09-06T07:57:45.490Z,25.43
2022-09-06T07:58:33.415Z,25.44
2022-09-06T07:59:22.187Z,25.45
2022-09-06T08:00:10.621Z,25.46
2022-09-06T08:01:05.078Z,25.46
2022-09-06T08:01:53.638Z,25.44
2022-09-06T08:02:40.554Z,25.41
2022-09-06T08:03:28.237Z,25.42
2022-09-06T08:04:14.829Z,25.48
2022-09-06T08:05:03.457Z,25.44
2022-09-06T08:09:08.317Z,25.47
2022-09-06T08:09:58.533Z,25.45
2022-09-06T08:10:46.597Z,25.48
2022-09-06T08:11:43.587Z,25.50
2022-09-06T08:12:31.631Z,25.48
2022-09-06T08:13:19.805Z,25.48
2022-09-06T08:14:07.225Z,25.47
2022-09-06T08:14:55.490Z,25.49
2022-09-06T08:15:44.063Z,25.45
2022-09-06T08:16:38.514Z,25.50
2022-09-06T08:17:27.075Z,25.52
2022-09-06T08:18:15.740Z,25.51
2022-09-06T08:19:05.225Z,25.50
2022-09-06T08:19:54.219Z,25.46
2022-09-06T08:20:43.157Z,25.49
2022-09-06T08:21:31.866Z,25.48
2022-09-06T08:22:27.033Z,25.49
2022-09-06T08:23:16.499Z,25.46
2022-09-06T08:24:04.204Z,25.47
2022-09-06T08:24:50.887Z,25.47
2022-09-06T08:25:38.019Z,25.46
2022-09-06T08:26:24.703Z,25.45
2022-09-06T08:27:16.435Z,25.48
2022-09-06T08:28:03.085Z,25.48
2022-09-06T08:28:49.196Z,25.47
2022-09-06T08:29:37.606Z,25.47
2022-09-06T08:30:23.934Z,25.47
2022-09-06T08:31:19.530Z,25.49
2022-09-06T08:32:05.360Z,25.46
2022-09-06T08:32:51.460Z,25.48
2022-09-06T08:33:37.689Z,25.49
2022-09-06T08:34:24.186Z,25.52
2022-09-06T08:35:16.039Z,25.55
2022-09-06T08:36:06.500Z,25.55
2022-09-06T08:36:55.388Z,25.53
2022-09-06T08:37:46.506Z,25.54
2022-09-06T08:38:35.013Z,25.50
2022-09-06T08:39:24.695Z,25.52
2022-09-06T08:40:20.078Z,25.52
2022-09-06T08:41:12.404Z,25.52
2022-09-06T08:42:02.036Z,25.54
2022-09-06T08:42:51.560Z,25.54
2022-09-06T08:43:40.992Z,25.51
2022-09-06T08:45:35.393Z,25.48
2022-09-06T08:46:22.475Z,25.50
2022-09-06T08:47:06.896Z,25.51
2022-09-06T08:47:52.030Z,25.49
2022-09-06T08:48:38.174Z,25.51
2022-09-06T08:49:23.911Z,25.54
2022-09-06T08:50:08.701Z,25.54
2022-09-06T08:51:03.145Z,25.53
2022-09-06T08:51:52.627Z,25.54
2022-09-06T08:52:39.321Z,25.57
2022-09-06T08:53:32.615Z,25.61
2022-09-06T08:54:37.589Z,25.65
2022-09-06T08:55:45.478Z,25.67
2022-09-06T08:56:31.882Z,25.66
2022-09-06T08:57:35.960Z,25.62
2022-09-06T08:58:29.917Z,25.59
2022-09-06T08:59:22.791Z,25.63
2022-09-06T09:00:11.554Z,25.63
2022-09-06T09:01:01.967Z,25.62
2022-09-06T09:02:03.066Z,25.59
2022-09-06T09:03:06.696Z,25.65
2022-09-06T09:03:52.840Z,25.62
2022-09-06T09:04:39.058Z,25.62
2022-09-06T09:05:28.051Z,25.62
2022-09-06T09:06:18.060Z,25.59
2022-09-06T09:07:05.365Z,25.55
2022-09-06T09:07:55.484Z,25.56
2022-09-06T09:08:45.983Z,25.66
2022-09-06T09:09:34.300Z,25.62
2022-09-06T09:10:29.735Z,25.61
2022-09-06T09:11:17.000Z,25.57
2022-09-06T09:12:11.074Z,25.56
2022-09-06T09:13:00.007Z,25.57
2022-09-06T09:13:56.850Z,25.57
2022-09-06T09:14:44.534Z,25.55
2022-09-06T09:15:31.286Z,25.56
2022-09-06T09:16:20.662Z,25.56
2022-09-06T09:17:14.685Z,25.53
2022-09-06T09:18:04.317Z,25.52
2022-09-06T09:18:55.450Z,25.51
2022-09-06T09:19:43.712Z,25.54
2022-09-06T09:20:33.000Z,25.55
2022-09-06T09:21:21.528Z,25.53
2022-09-06T09:22:16.428Z,25.54
2022-09-06T09:23:05.025Z,25.55
2022-09-06T09:23:54.374Z,25.55
2022-09-06T09:24:43.768Z,25.59
2022-09-06T09:25:31.565Z,25.58
2022-09-06T09:26:23.407Z,25.56
2022-09-06T09:27:13.977Z,25.56
2022-09-06T09:28:05.606Z,25.57
2022-09-06T09:29:08.168Z,25.57
2022-09-06T09:31:01.569Z,25.53
2022-09-06T09:31:54.134Z,25.52
2022-09-06T09:32:49.550Z,25.57
2022-09-06T09:33:39.223Z,25.53
2022-09-06T09:34:41.454Z,25.52
2022-09-06T09:35:44.081Z,25.52
2022-09-06T09:36:30.616Z,25.53
2022-09-06T09:37:47.488Z,25.51
2022-09-06T09:38:38.995Z,25.51
2022-09-06T09:39:26.060Z,25.51
2022-09-06T09:40:11.386Z,25.56
2022-09-06T09:41:00.681Z,25.53
2022-09-06T09:41:46.224Z,25.52
2022-09-06T09:42:43.179Z,25.53
2022-09-06T09:43:35.663Z,25.49
2022-09-06T09:44:25.851Z,25.52
2022-09-06T09:45:13.772Z,25.53
2022-09-06T09:46:20.060Z,25.52
2022-09-06T09:47:08.872Z,25.51
2022-09-06T09:47:55.087Z,25.51
2022-09-06T09:48:45.755Z,25.51
2022-09-06T09:49:26.584Z,25.54
2022-09-06T09:50:16.578Z,25.55
2022-09-06T09:51:04.717Z,25.56
2022-09-06T09:51:53.941Z,25.54
2022-09-06T09:52:42.108Z,25.55
2022-09-06T09:53:29.875Z,25.55
2022-09-06T09:54:24.329Z,25.54
2022-09-06T09:55:13.931Z,25.53
2022-09-06T09:56:09.136Z,25.53
2022-09-06T09:56:54.960Z,25.53
2022-09-06T09:57:41.004Z,25.51
2022-09-06T09:58:42.475Z,25.52
2022-09-06T09:59:33.232Z,25.53
2022-09-06T10:00:21.485Z,25.55
2022-09-06T10:01:27.365Z,25.58
2022-09-06T10:02:23.209Z,25.55
2022-09-06T10:03:11.587Z,25.53
2022-09-06T10:05:09.780Z,25.52
2022-09-06T10:07:15.597Z,25.52
2022-09-06T10:08:04.912Z,25.52
2022-09-06T10:08:53.320Z,25.56
2022-09-06T10:09:53.439Z,25.56
2022-09-06T10:10:38.744Z,25.61
2022-09-06T10:11:26.288Z,25.62
2022-09-06T10:12:16.418Z,25.61
2022-09-06T10:13:17.544Z,25.58
2022-09-06T10:14:16.168Z,25.56
2022-09-06T10:15:12.126Z,25.57
2022-09-06T10:15:57.655Z,25.53
2022-09-06T10:16:56.398Z,25.57
2022-09-06T10:17:45.985Z,25.57
2022-09-06T10:18:38.440Z,25.56
2022-09-06T10:19:30.661Z,25.54
2022-09-06T10:20:19.633Z,25.55
2022-09-06T10:21:13.453Z,25.59
2022-09-06T10:22:00.674Z,25.60
2022-09-06T10:23:02.287Z,25.61
2022-09-06T10:25:06.807Z,25.62
2022-09-06T10:26:00.176Z,25.61
2022-09-06T10:26:41.819Z,25.61
2022-09-06T10:27:27.305Z,25.59
2022-09-06T10:28:26.332Z,25.60
2022-09-06T10:29:16.467Z,25.63
2022-09-06T10:30:00.572Z,25.64
2022-09-06T10:30:53.619Z,25.60
2022-09-06T10:31:43.447Z,25.60
2022-09-06T10:32:39.418Z,25.64
2022-09-06T10:33:30.620Z,25.64
2022-09-06T10:34:20.040Z,25.61
2022-09-06T10:35:01.470Z,25.60
2022-09-06T10:35:51.579Z,25.61
2022-09-06T10:36:51.144Z,25.62
2022-09-06T10:37:31.773Z,25.61
2022-09-06T10:38:38.299Z,25.62
2022-09-06T10:39:37.154Z,25.64
2022-09-06T10:40:32.711Z,25.64
2022-09-06T10:41:14.331Z,25.65
2022-09-06T10:42:01.740Z,25.64
2022-09-06T10:42:43.328Z,25.65
2022-09-06T10:43:31.995Z,25.65
2022-09-06T10:44:15.481Z,25.67
2022-09-06T10:45:09.517Z,25.65
2022-09-06T10:46:04.516Z,25.64
2022-09-06T10:46:56.541Z,25.63
2022-09-06T10:47:59.042Z,25.65
2022-09-06T10:49:04.258Z,25.66
2022-09-06T10:49:49.622Z,25.64
2022-09-06T10:50:43.107Z,25.64
2022-09-06T10:51:44.098Z,25.67
2022-09-06T10:52:33.365Z,25.65
2022-09-06T10:53:19.559Z,25.64
2022-09-06T10:54:03.193Z,25.69
2022-09-06T10:54:52.885Z,25.66
2022-09-06T10:55:41.375Z,25.69
2022-09-06T10:56:31.874Z,25.69
2022-09-06T10:59:52.041Z,25.66
2022-09-06T11:00:37.275Z,25.65
2022-09-06T11:01:26.600Z,25.66
2022-09-06T11:02:25.943Z,25.67
2022-09-06T11:04:23.292Z,25.66
2022-09-06T11:05:41.844Z,25.70
2022-09-06T11:06:28.734Z,25.69
2022-09-06T11:07:14.838Z,25.70
2022-09-06T11:09:16.658Z,25.69
2022-09-06T11:10:03.719Z,25.68
2022-09-06T11:10:48.101Z,25.71
2022-09-06T11:11:51.606Z,25.70
2022-09-06T11:12:47.831Z,25.71
2022-09-06T11:14:39.703Z,25.71
2022-09-06T11:15:27.195Z,25.71
2022-09-06T11:16:25.980Z,25.67
2022-09-06T11:17:12.921Z,25.73
2022-09-06T11:17:57.511Z,25.74
2022-09-06T11:18:53.448Z,25.75
2022-09-06T11:19:44.386Z,25.74
2022-09-06T11:20:36.485Z,25.71
2022-09-06T11:21:44.069Z,25.74
2022-09-06T11:22:42.780Z,25.76
2022-09-06T11:23:35.671Z,25.75
2022-09-06T11:24:21.470Z,25.76
2022-09-06T11:25:24.981Z,25.75
2022-09-06T11:26:27.597Z,25.73
2022-09-06T11:27:14.273Z,25.72
2022-09-06T11:28:01.239Z,25.72
2022-09-06T11:28:55.729Z,25.74
2022-09-06T11:29:42.311Z,25.74
2022-09-06T11:30:29.178Z,25.73
2022-09-06T11:32:34.299Z,25.76
2022-09-06T11:33:28.076Z,25.79
2022-09-06T11:34:30.467Z,25.79
2022-09-06T11:35:17.045Z,25.82
2022-09-06T11:36:03.465Z,25.83
2022-09-06T11:36:55.743Z,25.82
2022-09-06T11:37:42.364Z,25.77
2022-09-06T11:38:27.079Z,25.77
2022-09-06T11:39:18.081Z,25.77
2022-09-06T11:40:28.833Z,25.76
2022-09-06T11:41:22.114Z,25.79
2022-09-06T11:42:11.179Z,25.75
2022-09-06T11:42:54.702Z,25.73
2022-09-06T11:43:47.756Z,25.74
2022-09-06T11:44:47.931Z,25.73
2022-09-06T11:45:47.016Z,25.76
2022-09-06T11:46:37.436Z,25.75
2022-09-06T11:47:43.991Z,25.73
2022-09-06T11:48:28.766Z,25.76
2022-09-06T11:49:09.827Z,25.75
2022-09-06T11:50:06.123Z,25.74
2022-09-06T11:50:58.600Z,25.77
2022-09-06T11:51:39.109Z,25.75
2022-09-06T11:52:42.365Z,25.75
2022-09-06T11:53:32.553Z,25.76
2022-09-06T11:54:21.040Z,25.76
2022-09-06T11:55:22.184Z,25.75
2022-09-06T11:56:02.588Z,25.75
2022-09-06T11:56:51.326Z,25.73
2022-09-06T11:57:40.672Z,25.75
2022-09-06T11:58:21.621Z,25.78
2022-09-06T11:59:29.251Z,25.77
2022-09-06T12:00:23.623Z,25.79
2022-09-06T12:01:18.044Z,25.77
2022-09-06T12:02:19.084Z,25.77
2022-09-06T12:04:13.288Z,25.80
2022-09-06T12:05:03.593Z,25.81
2022-09-06T12:06:05.494Z,25.80
2022-09-06T12:07:17.669Z,25.82
2022-09-06T12:08:28.057Z,25.81
2022-09-06T12:09:36.087Z,25.83
2022-09-06T12:10:44.392Z,25.84
2022-09-06T12:11:37.464Z,25.84
2022-09-06T12:12:25.007Z,25.82
2022-09-06T12:13:14.240Z,25.83
2022-09-06T12:14:04.001Z,25.86
2022-09-06T12:14:56.256Z,25.82
2022-09-06T12:15:54.679Z,25.79
2022-09-06T12:16:57.246Z,25.81
2022-09-06T12:17:51.770Z,25.84
2022-09-06T12:18:58.358Z,25.85
2022-09-06T12:20:02.035Z,25.84
2022-09-06T12:21:00.564Z,25.80
2022-09-06T12:21:57.046Z,25.81
2022-09-06T12:22:37.864Z,25.80
2022-09-06T12:23:39.767Z,25.83
2022-09-06T12:24:48.348Z,25.82
2022-09-06T12:25:39.532Z,25.81
2022-09-06T12:26:55.025Z,25.81
2022-09-06T12:27:47.901Z,25.82
2022-09-06T12:29:04.059Z,25.83
2022-09-06T12:29:58.458Z,25.81
2022-09-06T12:30:50.239Z,25.82
2022-09-06T12:31:37.968Z,25.82
2022-09-06T12:32:34.904Z,25.82
2022-09-06T12:33:23.202Z,25.82
2022-09-06T12:34:16.726Z,25.81
2022-09-06T12:36:39.421Z,25.87
2022-09-06T12:37:31.280Z,25.87
2022-09-06T12:38:27.699Z,25.84
2022-09-06T12:39:24.978Z,25.84
2022-09-06T12:40:17.332Z,25.87
2022-09-06T12:41:09.278Z,25.87
2022-09-06T12:42:12.794Z,25.87
2022-09-06T12:43:32.027Z,25.87
2022-09-06T12:44:28.126Z,25.88
2022-09-06T12:45:22.908Z,25.89
2022-09-06T12:46:20.119Z,25.85
2022-09-06T12:47:18.139Z,25.87
2022-09-06T12:48:19.951Z,25.87
2022-09-06T12:49:04.872Z,25.90
2022-09-06T12:49:58.410Z,25.90
2022-09-06T12:50:59.131Z,25.90
2022-09-06T12:51:52.060Z,25.87
2022-09-06T12:53:46.648Z,25.89
2022-09-06T12:54:40.700Z,25.89
2022-09-06T12:55:36.411Z,25.89
2022-09-06T12:56:27.716Z,25.92
2022-09-06T12:57:44.535Z,25.93
2022-09-06T12:58:38.885Z,25.94
2022-09-06T12:59:21.708Z,25.95
2022-09-06T13:00:10.399Z,25.93
2022-09-06T13:01:02.456Z,25.96
2022-09-06T13:01:51.892Z,25.97
2022-09-06T13:02:42.891Z,25.98
2022-09-06T13:04:44.483Z,25.97
2022-09-06T13:05:33.349Z,25.95
2022-09-06T13:06:27.486Z,25.93
2022-09-06T13:07:18.825Z,25.92
2022-09-06T13:08:13.701Z,25.91
2022-09-06T13:09:04.034Z,25.90
2022-09-06T13:09:57.555Z,25.90
2022-09-06T13:10:50.466Z,25.92
2022-09-06T13:14:39.837Z,25.93
2022-09-06T13:15:31.341Z,25.91
2022-09-06T13:16:22.199Z,25.92
2022-09-06T13:17:11.004Z,25.92
2022-09-06T13:17:59.578Z,25.94
2022-09-06T13:18:53.055Z,25.94
2022-09-06T13:19:35.431Z,25.95
2022-09-06T13:20:33.746Z,25.97
2022-09-06T13:22:30.458Z,25.96
2022-09-06T13:23:20.261Z,25.95
2022-09-06T13:24:16.412Z,25.94
2022-09-06T13:25:07.337Z,25.93
2022-09-06T13:26:05.067Z,25.93
2022-09-06T13:26:57.274Z,25.92
2022-09-06T13:27:46.807Z,25.91
2022-09-06T13:28:29.036Z,25.90
2022-09-06T13:29:29.772Z,25.92
2022-09-06T13:30:22.519Z,25.91
2022-09-06T13:31:16.908Z,25.91
2022-09-06T13:32:07.234Z,25.93
2022-09-06T13:33:10.412Z,25.94
2022-09-06T13:34:10.041Z,25.90
2022-09-06T13:35:05.872Z,25.91
2022-09-06T13:35:55.886Z,25.90
2022-09-06T13:36:54.307Z,25.91
2022-09-06T13:37:43.025Z,25.91
2022-09-06T13:38:46.877Z,25.91
2022-09-06T13:42:20.652Z,25.92
2022-09-06T13:43:14.029Z,25.92
2022-09-06T13:45:36.930Z,25.93
2022-09-06T13:46:30.066Z,25.96
2022-09-06T13:47:24.741Z,25.93
2022-09-06T13:48:38.593Z,25.94
2022-09-06T13:49:30.792Z,25.95
2022-09-06T13:50:32.003Z,25.94
2022-09-06T13:53:25.517Z,25.97
2022-09-06T13:54:16.860Z,25.94
2022-09-06T13:55:07.433Z,25.95
2022-09-06T13:56:00.659Z,25.90
2022-09-06T13:57:05.657Z,25.91
2022-09-06T13:57:55.895Z,25.92
2022-09-06T13:58:49.820Z,25.92
2022-09-06T13:59:40.303Z,25.96
2022-09-06T14:00:38.085Z,25.97
2022-09-06T14:01:30.630Z,25.98
2022-09-06T14:02:22.156Z,25.95
2022-09-06T14:03:17.701Z,25.94
2022-09-06T14:05:13.253Z,25.93
2022-09-06T14:06:08.242Z,25.93
2022-09-06T14:07:04.733Z,25.94
2022-09-06T14:07:57.526Z,25.91
2022-09-06T14:09:07.379Z,25.93
2022-09-06T14:09:55.417Z,25.92
2022-09-06T14:10:45.135Z,25.89
2022-09-06T14:11:35.758Z,25.91
2022-09-06T14:12:26.962Z,25.89
2022-09-06T14:13:18.539Z,25.92
2022-09-06T14:15:17.064Z,25.94
2022-09-06T14:16:08.915Z,25.91
2022-09-06T14:16:59.816Z,25.92
2022-09-06T14:17:50.246Z,25.90
2022-09-06T14:18:44.261Z,25.94
2022-09-06T14:19:36.092Z,25.91
2022-09-06T14:20:29.432Z,25.91
2022-09-06T14:21:21.495Z,25.94
2022-09-06T14:22:14.812Z,25.93
2022-09-06T14:27:23.764Z,25.96
2022-09-06T14:28:16.100Z,25.95
2022-09-06T14:29:14.742Z,25.97
2022-09-06T14:30:08.551Z,26.02
2022-09-06T14:31:02.131Z,26.03
2022-09-06T14:31:52.990Z,26.04
2022-09-06T14:32:50.206Z,26.06
2022-09-06T14:34:07.420Z,26.08
2022-09-06T14:34:59.913Z,26.07
2022-09-06T14:35:50.933Z,26.06
2022-09-06T14:38:13.949Z,26.06
2022-09-06T14:39:13.538Z,26.08
2022-09-06T14:40:11.002Z,26.07
2022-09-06T14:41:04.845Z,26.09
2022-09-06T14:41:56.918Z,26.10
2022-09-06T14:42:50.641Z,26.10
2022-09-06T14:43:44.782Z,26.01
2022-09-06T14:45:39.576Z,26.05
2022-09-06T14:46:30.149Z,26.06
2022-09-06T14:47:20.908Z,26.09
2022-09-06T14:49:25.805Z,26.09
2022-09-06T14:50:18.573Z,26.10
2022-09-06T14:51:13.311Z,26.12
2022-09-06T14:52:04.400Z,26.15
2022-09-06T14:55:11.642Z,26.18
2022-09-06T14:56:04.345Z,26.19
2022-09-06T14:56:57.195Z,26.19
2022-09-06T14:57:49.861Z,26.17
2022-09-06T14:58:42.062Z,26.17
2022-09-06T14:59:43.955Z,26.17
2022-09-06T15:00:39.115Z,26.19
2022-09-06T15:01:34.153Z,26.20
2022-09-06T15:02:28.487Z,26.16
2022-09-06T15:03:20.722Z,26.19
2022-09-06T15:04:15.929Z,26.18
2022-09-06T15:05:10.948Z,26.25
2022-09-06T15:06:02.555Z,26.25
2022-09-06T15:06:56.095Z,26.27
2022-09-06T15:07:48.587Z,26.27
2022-09-06T15:08:41.638Z,26.26
2022-09-06T15:09:38.638Z,26.23
2022-09-06T15:10:29.876Z,26.20
2022-09-06T15:11:21.396Z,26.25
2022-09-06T15:13:14.298Z,26.28
2022-09-06T15:15:08.893Z,26.26
2022-09-06T15:16:02.565Z,26.26
2022-09-06T15:16:56.131Z,26.27
2022-09-06T15:18:38.973Z,26.24
2022-09-06T15:19:18.022Z,26.24
2022-09-06T15:19:56.776Z,26.25
2022-09-06T15:20:34.706Z,26.26
2022-09-06T15:21:18.763Z,26.27
2022-09-06T15:21:56.863Z,26.28
2022-09-06T15:22:35.197Z,26.27
2022-09-06T15:23:24.825Z,26.27
2022-09-06T15:24:07.322Z,26.26
2022-09-06T15:24:47.761Z,26.23
2022-09-06T15:25:26.255Z,26.26
2022-09-06T15:26:04.651Z,26.24
2022-09-06T15:26:43.704Z,26.24
2022-09-06T15:27:21.507Z,26.26
2022-09-06T15:28:00.392Z,26.27
2022-09-06T15:28:39.765Z,26.26
2022-09-06T15:29:17.280Z,26.27
2022-09-06T15:29:54.841Z,26.27
2022-09-06T15:30:31.473Z,26.29
2022-09-06T15:31:09.671Z,26.30
2022-09-06T15:31:47.321Z,26.29
2022-09-06T15:32:24.200Z,26.33
2022-09-06T15:33:02.479Z,26.31
2022-09-06T15:33:41.785Z,26.30
2022-09-06T15:34:19.527Z,26.33
2022-09-06T15:34:58.494Z,26.29
2022-09-06T15:35:37.678Z,26.29
2022-09-06T15:36:15.861Z,26.30
2022-09-06T15:36:53.560Z,26.30
2022-09-06T15:37:31.415Z,26.30
2022-09-06T15:38:10.339Z,26.31
2022-09-06T15:38:47.059Z,26.30
2022-09-06T15:39:27.107Z,26.27